sensor_id;sensor_type;location;lat;lon;timestamp;P1;durP1;ratioP1;P2;durP2;ratioP2
14849;SDS011;7517;48.400;11.770;2024-02-04T00:00:18;1.50;;;1.13;;
14849;SDS011;7517;48.400;11.770;2024-02-04T00:02:46;1.53;;;1.10;;
14849;SDS011;7517;48.400;11.770;2024-02-04T00:05:13;0.97;;;0.90;;
14849;SDS011;7517;48.400;11.770;2024-02-04T00:07:41;1.20;;;1.10;;
14849;SDS011;7517;48.400;11.770;2024-02-04T00:10:10;1.37;;;1.27;;
14849;SDS011;7517;48.400;11.770;2024-02-04T00:12:37;1.20;;;1.10;;
14849;SDS011;7517;48.400;11.770;2024-02-04T00:15:05;3.13;;;1.20;;
14849;SDS011;7517;48.400;11.770;2024-02-04T00:17:33;1.00;;;0.90;;
14849;SDS011;7517;48.400;11.770;2024-02-04T00:20:01;3.13;;;1.20;;
14849;SDS011;7517;48.400;11.770;2024-02-04T00:22:30;2.50;;;0.90;;
14849;SDS011;7517;48.400;11.770;2024-02-04T00:24:58;1.27;;;0.70;;
14849;SDS011;7517;48.400;11.770;2024-02-04T00:27:31;1.17;;;1.00;;
14849;SDS011;7517;48.400;11.770;2024-02-04T00:29:58;1.30;;;1.30;;
14849;SDS011;7517;48.400;11.770;2024-02-04T00:32:26;1.00;;;1.00;;
14849;SDS011;7517;48.400;11.770;2024-02-04T00:34:53;1.00;;;0.90;;
14849;SDS011;7517;48.400;11.770;2024-02-04T00:37:21;1.20;;;1.10;;
14849;SDS011;7517;48.400;11.770;2024-02-04T00:39:48;1.87;;;1.13;;
14849;SDS011;7517;48.400;11.770;2024-02-04T00:42:15;1.00;;;1.00;;
14849;SDS011;7517;48.400;11.770;2024-02-04T00:44:44;1.07;;;1.00;;
14849;SDS011;7517;48.400;11.770;2024-02-04T00:47:11;1.97;;;1.07;;
14849;SDS011;7517;48.400;11.770;2024-02-04T00:49:39;8.17;;;1.37;;
14849;SDS011;7517;48.400;11.770;2024-02-04T00:52:06;1.77;;;1.27;;
14849;SDS011;7517;48.400;11.770;2024-02-04T00:54:33;0.97;;;0.97;;
14849;SDS011;7517;48.400;11.770;2024-02-04T00:57:01;5.67;;;1.77;;
14849;SDS011;7517;48.400;11.770;2024-02-04T00:59:28;1.53;;;1.43;;
14849;SDS011;7517;48.400;11.770;2024-02-04T01:01:57;1.77;;;1.30;;
14849;SDS011;7517;48.400;11.770;2024-02-04T01:04:24;1.70;;;1.60;;
14849;SDS011;7517;48.400;11.770;2024-02-04T01:06:51;1.80;;;1.50;;
14849;SDS011;7517;48.400;11.770;2024-02-04T01:09:18;1.50;;;1.40;;
14849;SDS011;7517;48.400;11.770;2024-02-04T01:11:46;6.57;;;2.17;;
14849;SDS011;7517;48.400;11.770;2024-02-04T01:14:13;1.30;;;1.20;;
14849;SDS011;7517;48.400;11.770;2024-02-04T01:16:40;3.90;;;1.63;;
14849;SDS011;7517;48.400;11.770;2024-02-04T01:19:09;1.50;;;1.40;;
14849;SDS011;7517;48.400;11.770;2024-02-04T01:21:36;3.23;;;1.60;;
14849;SDS011;7517;48.400;11.770;2024-02-04T01:24:03;1.47;;;1.37;;
14849;SDS011;7517;48.400;11.770;2024-02-04T01:26:31;2.53;;;1.40;;
14849;SDS011;7517;48.400;11.770;2024-02-04T01:28:58;1.20;;;1.13;;
14849;SDS011;7517;48.400;11.770;2024-02-04T01:31:26;1.30;;;1.20;;
14849;SDS011;7517;48.400;11.770;2024-02-04T01:33:57;1.20;;;1.17;;
14849;SDS011;7517;48.400;11.770;2024-02-04T01:36:25;1.20;;;1.10;;
14849;SDS011;7517;48.400;11.770;2024-02-04T01:38:53;1.00;;;1.00;;
14849;SDS011;7517;48.400;11.770;2024-02-04T01:41:20;11.53;;;2.00;;
14849;SDS011;7517;48.400;11.770;2024-02-04T01:43:49;1.10;;;1.10;;
14849;SDS011;7517;48.400;11.770;2024-02-04T01:46:16;1.80;;;1.20;;
14849;SDS011;7517;48.400;11.770;2024-02-04T01:48:43;1.20;;;1.20;;
14849;SDS011;7517;48.400;11.770;2024-02-04T01:51:11;1.00;;;1.00;;
14849;SDS011;7517;48.400;11.770;2024-02-04T01:53:41;1.10;;;1.00;;
14849;SDS011;7517;48.400;11.770;2024-02-04T01:56:12;2.50;;;1.40;;
14849;SDS011;7517;48.400;11.770;2024-02-04T01:58:40;1.03;;;1.00;;
14849;SDS011;7517;48.400;11.770;2024-02-04T02:01:10;1.10;;;0.90;;
14849;SDS011;7517;48.400;11.770;2024-02-04T02:03:37;1.00;;;1.00;;
14849;SDS011;7517;48.400;11.770;2024-02-04T02:06:05;4.47;;;1.17;;
14849;SDS011;7517;48.400;11.770;2024-02-04T02:08:33;0.90;;;0.90;;
14849;SDS011;7517;48.400;11.770;2024-02-04T02:11:04;0.97;;;0.97;;
14849;SDS011;7517;48.400;11.770;2024-02-04T02:13:39;1.20;;;1.10;;
14849;SDS011;7517;48.400;11.770;2024-02-04T02:16:11;11.97;;;1.70;;
14849;SDS011;7517;48.400;11.770;2024-02-04T02:18:45;1.03;;;0.97;;
14849;SDS011;7517;48.400;11.770;2024-02-04T02:21:25;2.13;;;1.00;;
14849;SDS011;7517;48.400;11.770;2024-02-04T02:24:10;1.27;;;1.23;;
14849;SDS011;7517;48.400;11.770;2024-02-04T02:26:46;1.40;;;1.30;;
14849;SDS011;7517;48.400;11.770;2024-02-04T02:29:15;1.23;;;1.20;;
14849;SDS011;7517;48.400;11.770;2024-02-04T02:31:43;1.57;;;1.47;;
14849;SDS011;7517;48.400;11.770;2024-02-04T02:34:11;3.33;;;1.63;;
14849;SDS011;7517;48.400;11.770;2024-02-04T02:36:40;1.50;;;1.40;;
14849;SDS011;7517;48.400;11.770;2024-02-04T02:39:13;1.87;;;1.77;;
14849;SDS011;7517;48.400;11.770;2024-02-04T02:41:49;2.20;;;1.50;;
14849;SDS011;7517;48.400;11.770;2024-02-04T02:44:18;1.50;;;1.40;;
14849;SDS011;7517;48.400;11.770;2024-02-04T02:46:47;1.40;;;1.30;;
14849;SDS011;7517;48.400;11.770;2024-02-04T02:49:15;1.90;;;1.80;;
14849;SDS011;7517;48.400;11.770;2024-02-04T02:51:42;2.63;;;1.80;;
14849;SDS011;7517;48.400;11.770;2024-02-04T02:54:10;7.47;;;1.90;;
14849;SDS011;7517;48.400;11.770;2024-02-04T02:56:37;1.67;;;1.57;;
14849;SDS011;7517;48.400;11.770;2024-02-04T02:59:05;2.60;;;1.70;;
14849;SDS011;7517;48.400;11.770;2024-02-04T03:01:33;2.30;;;1.57;;
14849;SDS011;7517;48.400;11.770;2024-02-04T03:04:01;1.50;;;1.40;;
14849;SDS011;7517;48.400;11.770;2024-02-04T03:06:29;1.50;;;1.40;;
14849;SDS011;7517;48.400;11.770;2024-02-04T03:08:56;1.50;;;1.40;;
14849;SDS011;7517;48.400;11.770;2024-02-04T03:11:23;1.33;;;1.23;;
14849;SDS011;7517;48.400;11.770;2024-02-04T03:13:50;1.33;;;1.23;;
14849;SDS011;7517;48.400;11.770;2024-02-04T03:16:19;1.30;;;1.20;;
14849;SDS011;7517;48.400;11.770;2024-02-04T03:18:46;1.60;;;1.50;;
14849;SDS011;7517;48.400;11.770;2024-02-04T03:21:13;1.37;;;1.27;;
14849;SDS011;7517;48.400;11.770;2024-02-04T03:23:41;1.40;;;1.27;;
14849;SDS011;7517;48.400;11.770;2024-02-04T03:26:09;1.70;;;1.47;;
14849;SDS011;7517;48.400;11.770;2024-02-04T03:28:37;1.20;;;1.10;;
14849;SDS011;7517;48.400;11.770;2024-02-04T03:31:04;1.30;;;1.20;;
14849;SDS011;7517;48.400;11.770;2024-02-04T03:33:32;2.67;;;1.67;;
14849;SDS011;7517;48.400;11.770;2024-02-04T03:36:00;3.10;;;1.30;;
14849;SDS011;7517;48.400;11.770;2024-02-04T03:38:27;1.40;;;1.30;;
14849;SDS011;7517;48.400;11.770;2024-02-04T03:40:54;1.30;;;1.20;;
14849;SDS011;7517;48.400;11.770;2024-02-04T03:43:22;1.30;;;1.20;;
14849;SDS011;7517;48.400;11.770;2024-02-04T03:45:49;1.27;;;1.17;;
14849;SDS011;7517;48.400;11.770;2024-02-04T03:48:16;1.20;;;1.10;;
14849;SDS011;7517;48.400;11.770;2024-02-04T03:50:45;1.00;;;1.00;;
14849;SDS011;7517;48.400;11.770;2024-02-04T03:53:12;1.27;;;1.17;;
14849;SDS011;7517;48.400;11.770;2024-02-04T03:55:39;1.37;;;1.20;;
14849;SDS011;7517;48.400;11.770;2024-02-04T03:58:06;5.53;;;1.50;;
14849;SDS011;7517;48.400;11.770;2024-02-04T04:00:34;1.10;;;1.10;;
14849;SDS011;7517;48.400;11.770;2024-02-04T04:03:01;0.90;;;0.90;;
14849;SDS011;7517;48.400;11.770;2024-02-04T04:05:29;1.30;;;1.20;;
14849;SDS011;7517;48.400;11.770;2024-02-04T04:07:57;1.43;;;1.33;;
14849;SDS011;7517;48.400;11.770;2024-02-04T04:10:25;1.40;;;1.30;;
14849;SDS011;7517;48.400;11.770;2024-02-04T04:12:52;2.03;;;1.20;;
14849;SDS011;7517;48.400;11.770;2024-02-04T04:15:19;3.47;;;1.37;;
14849;SDS011;7517;48.400;11.770;2024-02-04T04:17:46;3.77;;;1.40;;
14849;SDS011;7517;48.400;11.770;2024-02-04T04:20:13;1.47;;;1.37;;
14849;SDS011;7517;48.400;11.770;2024-02-04T04:22:41;1.80;;;1.70;;
14849;SDS011;7517;48.400;11.770;2024-02-04T04:25:09;1.43;;;1.33;;
14849;SDS011;7517;48.400;11.770;2024-02-04T04:27:36;1.40;;;1.30;;
14849;SDS011;7517;48.400;11.770;2024-02-04T04:30:04;1.37;;;1.27;;
14849;SDS011;7517;48.400;11.770;2024-02-04T04:32:34;1.60;;;1.40;;
14849;SDS011;7517;48.400;11.770;2024-02-04T04:35:01;1.67;;;1.57;;
14849;SDS011;7517;48.400;11.770;2024-02-04T04:37:28;1.43;;;1.33;;
14849;SDS011;7517;48.400;11.770;2024-02-04T04:39:55;1.30;;;1.20;;
14849;SDS011;7517;48.400;11.770;2024-02-04T04:42:24;1.77;;;1.53;;
14849;SDS011;7517;48.400;11.770;2024-02-04T04:44:51;4.70;;;2.03;;
14849;SDS011;7517;48.400;11.770;2024-02-04T04:47:18;1.50;;;1.40;;
14849;SDS011;7517;48.400;11.770;2024-02-04T04:49:45;2.23;;;1.50;;
14849;SDS011;7517;48.400;11.770;2024-02-04T04:52:13;1.63;;;1.53;;
14849;SDS011;7517;48.400;11.770;2024-02-04T04:54:40;1.87;;;1.77;;
14849;SDS011;7517;48.400;11.770;2024-02-04T04:57:07;4.67;;;1.60;;
14849;SDS011;7517;48.400;11.770;2024-02-04T04:59:36;6.57;;;2.03;;
14849;SDS011;7517;48.400;11.770;2024-02-04T05:02:03;1.60;;;1.50;;
14849;SDS011;7517;48.400;11.770;2024-02-04T05:04:30;1.60;;;1.50;;
14849;SDS011;7517;48.400;11.770;2024-02-04T05:06:58;1.77;;;1.67;;
14849;SDS011;7517;48.400;11.770;2024-02-04T05:09:25;1.50;;;1.40;;
14849;SDS011;7517;48.400;11.770;2024-02-04T05:11:52;2.13;;;1.67;;
14849;SDS011;7517;48.400;11.770;2024-02-04T05:14:19;1.80;;;1.70;;
14849;SDS011;7517;48.400;11.770;2024-02-04T05:16:48;1.90;;;1.80;;
14849;SDS011;7517;48.400;11.770;2024-02-04T05:19:15;2.63;;;1.43;;
14849;SDS011;7517;48.400;11.770;2024-02-04T05:21:42;2.10;;;1.90;;
14849;SDS011;7517;48.400;11.770;2024-02-04T05:24:12;2.30;;;2.10;;
14849;SDS011;7517;48.400;11.770;2024-02-04T05:26:40;3.27;;;1.80;;
14849;SDS011;7517;48.400;11.770;2024-02-04T05:29:07;1.63;;;1.50;;
14849;SDS011;7517;48.400;11.770;2024-02-04T05:31:39;1.70;;;1.60;;
14849;SDS011;7517;48.400;11.770;2024-02-04T05:34:09;2.07;;;1.97;;
14849;SDS011;7517;48.400;11.770;2024-02-04T05:36:37;1.57;;;1.47;;
14849;SDS011;7517;48.400;11.770;2024-02-04T05:39:10;1.60;;;1.50;;
14849;SDS011;7517;48.400;11.770;2024-02-04T05:41:37;2.77;;;1.87;;
14849;SDS011;7517;48.400;11.770;2024-02-04T05:44:05;1.90;;;1.80;;
14849;SDS011;7517;48.400;11.770;2024-02-04T05:46:34;3.47;;;2.30;;
14849;SDS011;7517;48.400;11.770;2024-02-04T05:49:01;2.30;;;2.10;;
14849;SDS011;7517;48.400;11.770;2024-02-04T05:51:30;2.00;;;1.90;;
14849;SDS011;7517;48.400;11.770;2024-02-04T05:53:58;2.33;;;2.13;;
14849;SDS011;7517;48.400;11.770;2024-02-04T05:56:25;6.50;;;2.30;;
14849;SDS011;7517;48.400;11.770;2024-02-04T05:58:52;1.77;;;1.60;;
14849;SDS011;7517;48.400;11.770;2024-02-04T06:01:19;2.37;;;2.10;;
14849;SDS011;7517;48.400;11.770;2024-02-04T06:03:47;3.27;;;1.83;;
14849;SDS011;7517;48.400;11.770;2024-02-04T06:06:14;2.10;;;1.97;;
14849;SDS011;7517;48.400;11.770;2024-02-04T06:08:43;2.70;;;1.70;;
14849;SDS011;7517;48.400;11.770;2024-02-04T06:11:10;2.80;;;1.77;;
14849;SDS011;7517;48.400;11.770;2024-02-04T06:13:39;6.57;;;2.40;;
14849;SDS011;7517;48.400;11.770;2024-02-04T06:16:08;1.77;;;1.40;;
14849;SDS011;7517;48.400;11.770;2024-02-04T06:18:37;1.90;;;1.80;;
14849;SDS011;7517;48.400;11.770;2024-02-04T06:21:04;2.27;;;1.60;;
14849;SDS011;7517;48.400;11.770;2024-02-04T06:23:32;1.70;;;1.60;;
14849;SDS011;7517;48.400;11.770;2024-02-04T06:26:01;1.80;;;1.70;;
14849;SDS011;7517;48.400;11.770;2024-02-04T06:28:28;1.47;;;1.37;;
14849;SDS011;7517;48.400;11.770;2024-02-04T06:30:55;2.13;;;1.97;;
14849;SDS011;7517;48.400;11.770;2024-02-04T06:33:23;1.77;;;1.67;;
14849;SDS011;7517;48.400;11.770;2024-02-04T06:35:50;1.97;;;1.77;;
14849;SDS011;7517;48.400;11.770;2024-02-04T06:38:18;1.67;;;1.57;;
14849;SDS011;7517;48.400;11.770;2024-02-04T06:40:46;1.63;;;1.53;;
14849;SDS011;7517;48.400;11.770;2024-02-04T06:43:14;2.73;;;1.90;;
14849;SDS011;7517;48.400;11.770;2024-02-04T06:45:42;1.90;;;1.80;;
14849;SDS011;7517;48.400;11.770;2024-02-04T06:48:09;1.73;;;1.63;;
14849;SDS011;7517;48.400;11.770;2024-02-04T06:50:36;2.07;;;1.97;;
14849;SDS011;7517;48.400;11.770;2024-02-04T06:53:03;1.63;;;1.53;;
14849;SDS011;7517;48.400;11.770;2024-02-04T06:55:31;5.47;;;2.00;;
14849;SDS011;7517;48.400;11.770;2024-02-04T06:57:58;1.83;;;1.63;;
14849;SDS011;7517;48.400;11.770;2024-02-04T07:00:26;1.73;;;1.63;;
14849;SDS011;7517;48.400;11.770;2024-02-04T07:02:56;1.53;;;1.43;;
14849;SDS011;7517;48.400;11.770;2024-02-04T07:05:23;3.00;;;1.73;;
14849;SDS011;7517;48.400;11.770;2024-02-04T07:07:50;2.10;;;1.90;;
14849;SDS011;7517;48.400;11.770;2024-02-04T07:10:17;2.10;;;1.50;;
14849;SDS011;7517;48.400;11.770;2024-02-04T07:12:45;3.40;;;2.07;;
14849;SDS011;7517;48.400;11.770;2024-02-04T07:15:12;1.70;;;1.60;;
14849;SDS011;7517;48.400;11.770;2024-02-04T07:17:41;1.57;;;1.47;;
14849;SDS011;7517;48.400;11.770;2024-02-04T07:20:08;6.63;;;1.53;;
14849;SDS011;7517;48.400;11.770;2024-02-04T07:22:36;1.90;;;1.70;;
14849;SDS011;7517;48.400;11.770;2024-02-04T07:25:03;2.07;;;1.70;;
14849;SDS011;7517;48.400;11.770;2024-02-04T07:27:31;3.63;;;1.73;;
14849;SDS011;7517;48.400;11.770;2024-02-04T07:29:58;1.60;;;1.50;;
14849;SDS011;7517;48.400;11.770;2024-02-04T07:32:26;1.80;;;1.70;;
14849;SDS011;7517;48.400;11.770;2024-02-04T07:34:54;2.10;;;1.60;;
14849;SDS011;7517;48.400;11.770;2024-02-04T07:37:21;1.80;;;1.70;;
14849;SDS011;7517;48.400;11.770;2024-02-04T07:39:51;2.50;;;1.40;;
14849;SDS011;7517;48.400;11.770;2024-02-04T07:42:18;2.70;;;1.47;;
14849;SDS011;7517;48.400;11.770;2024-02-04T07:44:45;2.43;;;1.60;;
14849;SDS011;7517;48.400;11.770;2024-02-04T07:47:13;2.20;;;1.97;;
14849;SDS011;7517;48.400;11.770;2024-02-04T07:49:41;4.37;;;2.30;;
14849;SDS011;7517;48.400;11.770;2024-02-04T07:52:10;2.30;;;1.73;;
14849;SDS011;7517;48.400;11.770;2024-02-04T07:54:37;2.23;;;1.80;;
14849;SDS011;7517;48.400;11.770;2024-02-04T07:57:04;2.57;;;1.87;;
14849;SDS011;7517;48.400;11.770;2024-02-04T07:59:36;2.20;;;2.00;;
14849;SDS011;7517;48.400;11.770;2024-02-04T08:02:05;2.07;;;1.87;;
14849;SDS011;7517;48.400;11.770;2024-02-04T08:04:33;1.87;;;1.73;;
14849;SDS011;7517;48.400;11.770;2024-02-04T08:07:00;2.77;;;2.40;;
14849;SDS011;7517;48.400;11.770;2024-02-04T08:09:29;2.23;;;2.03;;
14849;SDS011;7517;48.400;11.770;2024-02-04T08:11:57;1.80;;;1.60;;
14849;SDS011;7517;48.400;11.770;2024-02-04T08:14:24;2.23;;;2.03;;
14849;SDS011;7517;48.400;11.770;2024-02-04T08:16:56;2.57;;;2.37;;
14849;SDS011;7517;48.400;11.770;2024-02-04T08:19:24;2.20;;;2.00;;
14849;SDS011;7517;48.400;11.770;2024-02-04T08:21:51;2.17;;;1.97;;
14849;SDS011;7517;48.400;11.770;2024-02-04T08:24:18;2.37;;;2.07;;
14849;SDS011;7517;48.400;11.770;2024-02-04T08:26:47;1.97;;;1.80;;
14849;SDS011;7517;48.400;11.770;2024-02-04T08:29:14;3.17;;;2.43;;
14849;SDS011;7517;48.400;11.770;2024-02-04T08:31:41;2.30;;;1.87;;
14849;SDS011;7517;48.400;11.770;2024-02-04T08:34:09;4.00;;;1.90;;
14849;SDS011;7517;48.400;11.770;2024-02-04T08:36:36;2.53;;;1.97;;
14849;SDS011;7517;48.400;11.770;2024-02-04T08:39:04;2.13;;;1.93;;
14849;SDS011;7517;48.400;11.770;2024-02-04T08:41:31;3.33;;;2.00;;
14849;SDS011;7517;48.400;11.770;2024-02-04T08:44:00;1.70;;;1.60;;
14849;SDS011;7517;48.400;11.770;2024-02-04T08:46:27;1.90;;;1.57;;
14849;SDS011;7517;48.400;11.770;2024-02-04T08:48:55;2.43;;;1.80;;
14849;SDS011;7517;48.400;11.770;2024-02-04T08:51:23;1.90;;;1.80;;
14849;SDS011;7517;48.400;11.770;2024-02-04T08:53:50;1.70;;;1.60;;
14849;SDS011;7517;48.400;11.770;2024-02-04T08:56:18;2.80;;;1.43;;
14849;SDS011;7517;48.400;11.770;2024-02-04T08:58:48;1.50;;;1.40;;
14849;SDS011;7517;48.400;11.770;2024-02-04T09:01:18;1.67;;;1.50;;
14849;SDS011;7517;48.400;11.770;2024-02-04T09:03:46;2.90;;;1.43;;
14849;SDS011;7517;48.400;11.770;2024-02-04T09:06:14;3.27;;;1.17;;
14849;SDS011;7517;48.400;11.770;2024-02-04T09:08:41;1.87;;;1.43;;
14849;SDS011;7517;48.400;11.770;2024-02-04T09:11:10;2.63;;;1.20;;
14849;SDS011;7517;48.400;11.770;2024-02-04T09:13:43;1.57;;;1.10;;
14849;SDS011;7517;48.400;11.770;2024-02-04T09:16:11;2.77;;;1.20;;
14849;SDS011;7517;48.400;11.770;2024-02-04T09:18:39;1.20;;;1.10;;
14849;SDS011;7517;48.400;11.770;2024-02-04T09:21:06;1.43;;;1.33;;
14849;SDS011;7517;48.400;11.770;2024-02-04T09:23:34;1.33;;;1.23;;
14849;SDS011;7517;48.400;11.770;2024-02-04T09:26:01;0.90;;;0.90;;
14849;SDS011;7517;48.400;11.770;2024-02-04T09:28:28;1.30;;;1.20;;
14849;SDS011;7517;48.400;11.770;2024-02-04T09:30:55;1.10;;;1.00;;
14849;SDS011;7517;48.400;11.770;2024-02-04T09:33:23;1.20;;;0.90;;
14849;SDS011;7517;48.400;11.770;2024-02-04T09:35:51;1.97;;;1.10;;
14849;SDS011;7517;48.400;11.770;2024-02-04T09:38:19;0.87;;;0.87;;
14849;SDS011;7517;48.400;11.770;2024-02-04T09:40:47;1.30;;;1.20;;
14849;SDS011;7517;48.400;11.770;2024-02-04T09:43:17;0.80;;;0.80;;
14849;SDS011;7517;48.400;11.770;2024-02-04T09:45:45;1.63;;;0.90;;
14849;SDS011;7517;48.400;11.770;2024-02-04T09:48:14;0.87;;;0.87;;
14849;SDS011;7517;48.400;11.770;2024-02-04T09:50:48;0.80;;;0.80;;
14849;SDS011;7517;48.400;11.770;2024-02-04T09:53:20;0.87;;;0.80;;
14849;SDS011;7517;48.400;11.770;2024-02-04T09:55:57;1.20;;;1.10;;
14849;SDS011;7517;48.400;11.770;2024-02-04T09:58:25;0.80;;;0.70;;
14849;SDS011;7517;48.400;11.770;2024-02-04T10:00:52;1.90;;;1.33;;
14849;SDS011;7517;48.400;11.770;2024-02-04T10:03:21;0.80;;;0.80;;
14849;SDS011;7517;48.400;11.770;2024-02-04T10:05:48;1.20;;;0.80;;
14849;SDS011;7517;48.400;11.770;2024-02-04T10:08:17;0.80;;;0.80;;
14849;SDS011;7517;48.400;11.770;2024-02-04T10:10:45;1.70;;;1.10;;
14849;SDS011;7517;48.400;11.770;2024-02-04T10:13:13;0.50;;;0.50;;
14849;SDS011;7517;48.400;11.770;2024-02-04T10:15:40;0.90;;;0.90;;
14849;SDS011;7517;48.400;11.770;2024-02-04T10:18:07;1.00;;;0.80;;
14849;SDS011;7517;48.400;11.770;2024-02-04T10:20:35;1.20;;;0.70;;
14849;SDS011;7517;48.400;11.770;2024-02-04T10:23:03;0.80;;;0.80;;
14849;SDS011;7517;48.400;11.770;2024-02-04T10:25:31;0.90;;;0.80;;
14849;SDS011;7517;48.400;11.770;2024-02-04T10:27:59;0.63;;;0.60;;
14849;SDS011;7517;48.400;11.770;2024-02-04T10:30:27;2.63;;;0.60;;
14849;SDS011;7517;48.400;11.770;2024-02-04T10:32:55;1.40;;;0.90;;
14849;SDS011;7517;48.400;11.770;2024-02-04T10:35:22;2.07;;;0.80;;
14849;SDS011;7517;48.400;11.770;2024-02-04T10:37:50;0.70;;;0.70;;
14849;SDS011;7517;48.400;11.770;2024-02-04T10:40:20;1.03;;;0.50;;
14849;SDS011;7517;48.400;11.770;2024-02-04T10:42:49;0.53;;;0.53;;
14849;SDS011;7517;48.400;11.770;2024-02-04T10:45:23;0.83;;;0.60;;
14849;SDS011;7517;48.400;11.770;2024-02-04T10:47:56;0.50;;;0.50;;
14849;SDS011;7517;48.400;11.770;2024-02-04T10:50:27;0.40;;;0.40;;
14849;SDS011;7517;48.400;11.770;2024-02-04T10:52:58;0.40;;;0.40;;
14849;SDS011;7517;48.400;11.770;2024-02-04T10:55:32;0.40;;;0.40;;
14849;SDS011;7517;48.400;11.770;2024-02-04T10:58:06;10.93;;;0.97;;
14849;SDS011;7517;48.400;11.770;2024-02-04T11:00:36;1.93;;;0.60;;
14849;SDS011;7517;48.400;11.770;2024-02-04T11:03:06;0.60;;;0.40;;
14849;SDS011;7517;48.400;11.770;2024-02-04T11:05:35;0.60;;;0.47;;
14849;SDS011;7517;48.400;11.770;2024-02-04T11:08:04;2.73;;;0.40;;
14849;SDS011;7517;48.400;11.770;2024-02-04T11:10:32;0.50;;;0.50;;
14849;SDS011;7517;48.400;11.770;2024-02-04T11:13:02;2.03;;;0.53;;
14849;SDS011;7517;48.400;11.770;2024-02-04T11:15:36;0.63;;;0.60;;
14849;SDS011;7517;48.400;11.770;2024-02-04T11:21:19;1.07;;;0.40;;
14849;SDS011;7517;48.400;11.770;2024-02-04T11:24:09;1.37;;;0.83;;
14849;SDS011;7517;48.400;11.770;2024-02-04T11:26:53;0.70;;;0.70;;
14849;SDS011;7517;48.400;11.770;2024-02-04T11:29:22;3.60;;;2.10;;
14849;SDS011;7517;48.400;11.770;2024-02-04T11:31:52;1.93;;;1.00;;
14849;SDS011;7517;48.400;11.770;2024-02-04T11:34:20;2.40;;;0.90;;
14849;SDS011;7517;48.400;11.770;2024-02-04T11:36:47;1.53;;;0.70;;
14849;SDS011;7517;48.400;11.770;2024-02-04T11:39:17;0.80;;;0.80;;
14849;SDS011;7517;48.400;11.770;2024-02-04T11:41:47;0.60;;;0.60;;
14849;SDS011;7517;48.400;11.770;2024-02-04T11:44:23;0.60;;;0.40;;
14849;SDS011;7517;48.400;11.770;2024-02-04T11:46:54;0.40;;;0.30;;
14849;SDS011;7517;48.400;11.770;2024-02-04T11:49:25;0.60;;;0.50;;
14849;SDS011;7517;48.400;11.770;2024-02-04T11:51:52;0.83;;;0.40;;
14849;SDS011;7517;48.400;11.770;2024-02-04T11:54:20;0.77;;;0.77;;
14849;SDS011;7517;48.400;11.770;2024-02-04T11:56:48;5.77;;;0.93;;
14849;SDS011;7517;48.400;11.770;2024-02-04T11:59:18;0.47;;;0.40;;
14849;SDS011;7517;48.400;11.770;2024-02-04T12:01:54;13.33;;;1.27;;
14849;SDS011;7517;48.400;11.770;2024-02-04T12:04:22;0.50;;;0.30;;
14849;SDS011;7517;48.400;11.770;2024-02-04T12:06:54;2.53;;;0.50;;
14849;SDS011;7517;48.400;11.770;2024-02-04T12:09:22;0.53;;;0.30;;
14849;SDS011;7517;48.400;11.770;2024-02-04T12:11:50;5.77;;;0.80;;
14849;SDS011;7517;48.400;11.770;2024-02-04T12:14:20;0.80;;;0.47;;
14849;SDS011;7517;48.400;11.770;2024-02-04T12:16:48;0.57;;;0.30;;
14849;SDS011;7517;48.400;11.770;2024-02-04T12:19:17;0.60;;;0.60;;
14849;SDS011;7517;48.400;11.770;2024-02-04T12:21:44;0.30;;;0.30;;
14849;SDS011;7517;48.400;11.770;2024-02-04T12:24:11;1.47;;;0.37;;
14849;SDS011;7517;48.400;11.770;2024-02-04T12:26:38;1.07;;;0.40;;
14849;SDS011;7517;48.400;11.770;2024-02-04T12:29:06;1.07;;;0.80;;
14849;SDS011;7517;48.400;11.770;2024-02-04T12:31:34;0.40;;;0.30;;
14849;SDS011;7517;48.400;11.770;2024-02-04T12:34:01;0.30;;;0.30;;
14849;SDS011;7517;48.400;11.770;2024-02-04T12:36:29;0.30;;;0.30;;
14849;SDS011;7517;48.400;11.770;2024-02-04T12:38:58;0.90;;;0.90;;
14849;SDS011;7517;48.400;11.770;2024-02-04T12:41:28;0.93;;;0.50;;
14849;SDS011;7517;48.400;11.770;2024-02-04T12:43:56;0.30;;;0.30;;
14849;SDS011;7517;48.400;11.770;2024-02-04T12:46:28;0.50;;;0.50;;
14849;SDS011;7517;48.400;11.770;2024-02-04T12:48:56;3.40;;;0.77;;
14849;SDS011;7517;48.400;11.770;2024-02-04T12:51:25;0.33;;;0.30;;
14849;SDS011;7517;48.400;11.770;2024-02-04T12:54:04;0.40;;;0.40;;
14849;SDS011;7517;48.400;11.770;2024-02-04T12:56:39;0.60;;;0.60;;
14849;SDS011;7517;48.400;11.770;2024-02-04T12:59:22;0.77;;;0.60;;
14849;SDS011;7517;48.400;11.770;2024-02-04T13:01:54;0.50;;;0.30;;
14849;SDS011;7517;48.400;11.770;2024-02-04T13:04:23;1.00;;;0.80;;
14849;SDS011;7517;48.400;11.770;2024-02-04T13:06:51;4.00;;;0.60;;
14849;SDS011;7517;48.400;11.770;2024-02-04T13:09:20;0.30;;;0.30;;
14849;SDS011;7517;48.400;11.770;2024-02-04T13:11:48;0.70;;;0.50;;
14849;SDS011;7517;48.400;11.770;2024-02-04T13:14:15;1.13;;;0.40;;
14849;SDS011;7517;48.400;11.770;2024-02-04T13:16:42;0.50;;;0.50;;
14849;SDS011;7517;48.400;11.770;2024-02-04T13:19:10;0.67;;;0.67;;
14849;SDS011;7517;48.400;11.770;2024-02-04T13:21:37;1.37;;;0.87;;
14849;SDS011;7517;48.400;11.770;2024-02-04T13:24:04;1.03;;;0.60;;
14849;SDS011;7517;48.400;11.770;2024-02-04T13:26:35;1.80;;;0.60;;
14849;SDS011;7517;48.400;11.770;2024-02-04T13:29:03;0.90;;;0.63;;
14849;SDS011;7517;48.400;11.770;2024-02-04T13:31:30;0.60;;;0.60;;
14849;SDS011;7517;48.400;11.770;2024-02-04T13:33:58;0.90;;;0.50;;
14849;SDS011;7517;48.400;11.770;2024-02-04T13:36:29;0.50;;;0.50;;
14849;SDS011;7517;48.400;11.770;2024-02-04T13:38:56;0.63;;;0.40;;
14849;SDS011;7517;48.400;11.770;2024-02-04T13:41:23;1.63;;;0.60;;
14849;SDS011;7517;48.400;11.770;2024-02-04T13:43:53;2.77;;;0.70;;
14849;SDS011;7517;48.400;11.770;2024-02-04T13:46:23;1.63;;;0.60;;
14849;SDS011;7517;48.400;11.770;2024-02-04T13:48:51;0.67;;;0.60;;
14849;SDS011;7517;48.400;11.770;2024-02-04T13:51:18;0.80;;;0.60;;
14849;SDS011;7517;48.400;11.770;2024-02-04T13:53:45;0.73;;;0.70;;
14849;SDS011;7517;48.400;11.770;2024-02-04T13:56:12;0.57;;;0.57;;
14849;SDS011;7517;48.400;11.770;2024-02-04T13:58:40;0.77;;;0.63;;
14849;SDS011;7517;48.400;11.770;2024-02-04T14:01:09;0.90;;;0.80;;
14849;SDS011;7517;48.400;11.770;2024-02-04T14:03:37;1.17;;;0.90;;
14849;SDS011;7517;48.400;11.770;2024-02-04T14:06:08;1.83;;;1.40;;
14849;SDS011;7517;48.400;11.770;2024-02-04T14:08:41;0.80;;;0.80;;
14849;SDS011;7517;48.400;11.770;2024-02-04T14:11:09;0.83;;;0.83;;
14849;SDS011;7517;48.400;11.770;2024-02-04T14:13:38;2.80;;;0.60;;
14849;SDS011;7517;48.400;11.770;2024-02-04T14:16:07;0.80;;;0.80;;
14849;SDS011;7517;48.400;11.770;2024-02-04T14:18:38;1.10;;;1.00;;
14849;SDS011;7517;48.400;11.770;2024-02-04T14:21:11;1.27;;;1.00;;
14849;SDS011;7517;48.400;11.770;2024-02-04T14:23:40;1.20;;;0.80;;
14849;SDS011;7517;48.400;11.770;2024-02-04T14:26:17;3.07;;;1.10;;
14849;SDS011;7517;48.400;11.770;2024-02-04T14:28:46;1.30;;;1.20;;
14849;SDS011;7517;48.400;11.770;2024-02-04T14:31:15;1.63;;;0.90;;
14849;SDS011;7517;48.400;11.770;2024-02-04T14:33:43;7.93;;;1.63;;
14849;SDS011;7517;48.400;11.770;2024-02-04T14:36:12;1.77;;;0.97;;
14849;SDS011;7517;48.400;11.770;2024-02-04T14:38:39;3.70;;;2.10;;
14849;SDS011;7517;48.400;11.770;2024-02-04T14:41:07;1.80;;;1.40;;
14849;SDS011;7517;48.400;11.770;2024-02-04T14:43:35;1.30;;;1.07;;
14849;SDS011;7517;48.400;11.770;2024-02-04T14:46:02;0.93;;;0.80;;
14849;SDS011;7517;48.400;11.770;2024-02-04T14:48:31;3.13;;;1.20;;
14849;SDS011;7517;48.400;11.770;2024-02-04T14:50:58;0.90;;;0.90;;
14849;SDS011;7517;48.400;11.770;2024-02-04T14:53:25;1.23;;;0.80;;
14849;SDS011;7517;48.400;11.770;2024-02-04T14:55:52;1.30;;;1.17;;
14849;SDS011;7517;48.400;11.770;2024-02-04T14:58:19;5.80;;;1.60;;